Time;durP1;ratioP1;P1;durP2;ratioP2;P2;SDS_P1;SDS_P2;PMS_P1;PMS_P2;Temp;Humidity;BMP_temperature;BMP_pressure;BME280_temperature;BME280_humidity;BME280_pressure;Samples;Min_cycle;Max_cycle;Signal;HPM_P1;HPM_P2
2021/05/14 00:00:14;;;;;;;13.20;10.60;;;;;;;9.79;100.00;97250.14;3795010;76;77432;-26
2021/05/14 00:05:21;;;;;;;13.68;10.55;;;;;;;9.78;100.00;97259.23;3795466;76;44030;-26
2021/05/14 00:10:27;;;;;;;15.15;10.80;;;;;;;9.78;100.00;97255.19;3796515;78;43723;-26
2021/05/14 00:15:33;;;;;;;11.53;8.95;;;;;;;9.79;100.00;97247.95;3792683;78;43689;-26
2021/05/14 00:20:41;;;;;;;14.40;10.53;;;;;;;9.79;100.00;97243.91;3798809;76;43975;-26
2021/05/14 00:25:47;;;;;;;14.63;10.40;;;;;;;9.77;100.00;97240.08;3796250;76;43207;-26
2021/05/14 00:30:53;;;;;;;12.23;10.17;;;;;;;9.74;100.00;97233.71;3799222;76;43183;-26
2021/05/14 00:35:59;;;;;;;12.98;10.70;;;;;;;9.71;100.00;97234.92;3824926;76;43984;-26
2021/05/14 00:41:06;;;;;;;16.47;11.07;;;;;;;9.69;100.00;97235.62;3821139;77;44056;-27
2021/05/14 00:46:12;;;;;;;14.10;10.70;;;;;;;9.66;100.00;97241.36;3819235;77;43416;-26
2021/05/14 00:51:20;;;;;;;16.43;10.37;;;;;;;9.65;100.00;97238.86;3823472;76;77340;-27
2021/05/14 00:56:26;;;;;;;14.28;10.65;;;;;;;9.61;100.00;97246.96;3826064;76;43425;-26
2021/05/14 01:01:32;;;;;;;25.17;12.80;;;;;;;9.61;100.00;97242.93;3818389;76;44237;-27
2021/05/14 01:06:39;;;;;;;21.30;12.47;;;;;;;9.55;100.00;97244.01;3821640;77;44105;-26
2021/05/14 01:11:45;;;;;;;19.43;12.47;;;;;;;9.46;100.00;97249.15;3819131;77;44503;-27
2021/05/14 01:16:51;;;;;;;16.35;12.78;;;;;;;9.45;100.00;97250.16;3821205;76;43459;-26
2021/05/14 01:22:00;;;;;;;17.63;12.93;;;;;;;9.43;100.00;97253.54;3818798;77;44053;-27
2021/05/14 01:27:07;;;;;;;18.33;13.07;;;;;;;9.46;100.00;97250.49;3822652;77;43762;-25
2021/05/14 01:32:14;;;;;;;19.05;13.45;;;;;;;9.48;100.00;97248.43;3807721;76;43455;-27
2021/05/14 01:37:22;;;;;;;18.10;13.08;;;;;;;9.46;100.00;97245.11;3793093;77;44156;-27
2021/05/14 01:42:28;;;;;;;16.90;12.57;;;;;;;9.50;100.00;97254.47;3733437;79;44058;-27
2021/05/14 01:47:34;;;;;;;16.30;12.50;;;;;;;9.50;100.00;97254.47;3741826;78;43676;-27
2021/05/14 01:52:40;;;;;;;17.30;12.43;;;;;;;9.50;100.00;97245.58;3737936;79;43730;-27
2021/05/14 01:57:46;;;;;;;17.25;12.68;;;;;;;9.50;100.00;97246.92;3738592;79;77804;-26
2021/05/14 02:02:52;;;;;;;17.07;12.93;;;;;;;9.49;100.00;97250.63;3736935;78;43337;-26
2021/05/14 02:07:58;;;;;;;14.53;11.73;;;;;;;9.48;100.00;97248.43;3742035;78;44460;-27
2021/05/14 02:13:04;;;;;;;14.73;11.25;;;;;;;9.46;100.00;97257.21;3712949;79;43404;-27
2021/05/14 02:18:10;;;;;;;15.63;12.27;;;;;;;9.46;100.00;97255.88;3681741;78;77489;-26
2021/05/14 02:23:16;;;;;;;17.70;11.20;;;;;;;9.41;100.00;97242.95;3632323;80;44491;-27
2021/05/14 02:28:22;;;;;;;15.48;11.57;;;;;;;9.43;100.00;97247.31;3760362;78;44050;-27
2021/05/14 02:33:28;;;;;;;16.17;12.45;;;;;;;9.40;100.00;97252.06;3787835;77;43661;-27
2021/05/14 02:38:34;;;;;;;16.32;11.30;;;;;;;9.38;100.00;97246.52;3796128;77;43474;-27
2021/05/14 02:43:41;;;;;;;13.33;10.30;;;;;;;9.36;100.00;97238.65;3757512;78;43488;-26
2021/05/14 02:48:47;;;;;;;15.10;11.97;;;;;;;9.33;100.00;97233.63;3712841;78;43444;-27
2021/05/14 02:53:53;;;;;;;17.03;11.67;;;;;;;9.32;100.00;97244.58;3621374;81;43683;-27
2021/05/14 02:58:59;;;;;;;13.03;10.87;;;;;;;9.31;100.00;97238.87;3765953;78;77758;-27
2021/05/14 03:04:07;;;;;;;14.27;10.83;;;;;;;9.29;100.00;97244.41;3713920;78;77350;-27
2021/05/14 03:09:13;;;;;;;14.30;10.97;;;;;;;9.21;100.00;97249.37;3617423;81;44042;-27
2021/05/14 03:14:21;;;;;;;16.07;11.00;;;;;;;9.18;100.00;97251.08;3628082;80;44070;-26
2021/05/14 03:19:28;;;;;;;11.95;9.88;;;;;;;9.15;100.00;97251.95;3766239;77;43916;-26
2021/05/14 03:24:34;;;;;;;14.50;11.23;;;;;;;9.13;100.00;97252.11;3756646;78;44063;-28
2021/05/14 03:29:41;;;;;;;13.28;10.23;;;;;;;9.13;100.00;97257.48;3742702;78;77472;-27
2021/05/14 03:34:51;;;;;;;13.67;10.17;;;;;;;9.14;100.00;97257.81;3792278;77;43661;-27
2021/05/14 03:40:03;;;;;;;12.60;9.63;;;;;;;9.15;100.00;97265.38;3801475;77;43685;-26
2021/05/14 03:45:09;;;;;;;12.17;9.53;;;;;;;9.14;100.00;97260.50;3773815;76;44175;-26
2021/05/14 03:50:17;;;;;;;14.28;10.68;;;;;;;9.16;100.00;97265.19;3853864;75;77421;-26
2021/05/14 03:55:23;;;;;;;10.55;8.83;;;;;;;9.18;100.00;97271.23;3746615;76;43342;-26
2021/05/14 04:00:29;;;;;;;13.33;10.40;;;;;;;9.22;100.00;97271.20;3738192;78;43327;-27
2021/05/14 04:05:39;;;;;;;15.30;11.10;;;;;;;9.23;100.00;97272.84;3789774;76;77360;-27
2021/05/14 04:11:04;;;;;;;11.03;9.50;;;;;;;9.27;100.00;97274.69;3799809;77;43452;-27
2021/05/14 04:15:59;;;;;;;14.45;11.05;;;;;;;9.31;100.00;97279.19;3795807;76;77474;-27
2021/05/14 04:21:06;;;;;;;13.20;11.10;;;;;;;9.31;100.00;97273.81;3854893;76;44081;-27
2021/05/14 04:26:12;;;;;;;14.98;11.43;;;;;;;9.33;100.00;97282.01;3737276;78;44419;-27
2021/05/14 04:31:21;;;;;;;13.03;11.10;;;;;;;9.38;100.00;97285.48;3789078;76;44012;-27
2021/05/14 04:36:27;;;;;;;15.30;11.27;;;;;;;9.42;100.00;97296.22;3870137;75;44012;-27
2021/05/14 04:41:34;;;;;;;15.73;12.07;;;;;;;9.39;100.00;97289.36;3846259;75;77449;-27
2021/05/14 04:46:40;;;;;;;15.50;11.60;;;;;;;9.42;100.00;97289.50;3746297;76;44054;-27
2021/05/14 04:51:48;;;;;;;16.90;12.45;;;;;;;9.47;100.00;97288.95;3787941;76;77434;-27
2021/05/14 04:56:56;;;;;;;15.03;11.93;;;;;;;9.51;100.00;97287.58;3750427;78;43402;-26
2021/05/14 05:02:04;;;;;;;14.67;12.03;;;;;;;9.56;100.00;97293.23;3801513;76;77519;-27
2021/05/14 05:07:11;;;;;;;14.13;11.50;;;;;;;9.60;100.00;97308.48;3869907;76;44005;-26
2021/05/14 05:12:17;;;;;;;20.57;12.95;;;;;;;9.67;100.00;97294.13;3830265;76;43421;-27
2021/05/14 05:17:22;;;;;;;15.40;12.27;;;;;;;9.74;100.00;97296.91;3764819;76;43459;-26
2021/05/14 05:22:31;;;;;;;18.27;12.90;;;;;;;9.84;100.00;97300.17;3807160;77;43361;-26
2021/05/14 05:27:38;;;;;;;18.73;12.95;;;;;;;9.89;100.00;97300.13;3639769;81;44059;-26
2021/05/14 05:32:44;;;;;;;18.23;12.33;;;;;;;9.99;100.00;97299.34;3802369;76;44605;-25
2021/05/14 05:37:50;;;;;;;15.17;11.60;;;;;;;10.06;100.00;97301.61;3757214;78;43413;-26
2021/05/14 05:42:56;;;;;;;16.43;11.90;;;;;;;10.16;100.00;97308.92;3795499;78;77561;-26
2021/05/14 05:48:03;;;;;;;16.40;11.95;;;;;;;10.30;100.00;97315.30;3820021;76;43381;-26
2021/05/14 05:53:09;;;;;;;14.83;11.40;;;;;;;10.37;100.00;97320.78;3839239;76;43641;-26
2021/05/14 05:58:17;;;;;;;15.20;12.07;;;;;;;10.45;100.00;97325.27;3800557;77;44088;-27
2021/05/14 06:03:23;;;;;;;13.93;10.80;;;;;;;10.52;100.00;97325.35;3801232;76;43540;-26
2021/05/14 06:08:29;;;;;;;14.27;10.80;;;;;;;10.60;100.00;97328.75;3773596;76;77398;-27
2021/05/14 06:13:37;;;;;;;13.32;11.33;;;;;;;10.65;100.00;97336.26;3738364;79;44130;-27
2021/05/14 06:18:46;;;;;;;13.55;11.00;;;;;;;10.73;100.00;97338.86;3769044;76;43304;-27
2021/05/14 06:23:50;;;;;;;13.60;10.82;;;;;;;10.82;100.00;97341.44;3799175;76;43397;-27
2021/05/14 06:28:57;;;;;;;13.33;10.60;;;;;;;10.89;100.00;97346.38;3764513;78;43123;-27
2021/05/14 06:34:03;;;;;;;14.43;10.60;;;;;;;10.82;100.00;97345.48;3833498;76;43694;-27
2021/05/14 06:39:10;;;;;;;12.55;11.12;;;;;;;10.89;100.00;97343.69;3831046;76;44028;-27
2021/05/14 06:44:18;;;;;;;14.78;11.03;;;;;;;10.92;100.00;97344.66;3825823;77;43679;-27
2021/05/14 06:49:24;;;;;;;13.32;11.12;;;;;;;10.95;100.00;97354.54;3860388;76;44104;-27
2021/05/14 06:54:30;;;;;;;14.23;12.10;;;;;;;10.97;100.00;97357.06;3825714;77;43725;-27
2021/05/14 06:59:36;;;;;;;13.87;10.60;;;;;;;11.10;100.00;97364.45;3821855;76;43365;-27
2021/05/14 07:04:42;;;;;;;14.20;11.08;;;;;;;11.12;100.00;97360.20;3824667;75;77981;-27
2021/05/14 07:09:56;;;;;;;13.05;11.00;;;;;;;11.27;100.00;97360.17;3780212;77;43433;-27
2021/05/14 07:15:02;;;;;;;11.73;10.08;;;;;;;11.32;100.00;97354.53;3762437;79;43945;-27
2021/05/14 07:20:10;;;;;;;11.53;10.23;;;;;;;11.33;100.00;97361.59;3870151;76;44037;-27
2021/05/14 07:25:16;;;;;;;13.08;10.20;;;;;;;11.40;100.00;97356.27;3892150;76;44165;-27
2021/05/14 07:30:23;;;;;;;15.75;10.55;;;;;;;11.44;100.00;97366.14;3817275;76;42859;-27
2021/05/14 07:35:29;;;;;;;12.43;10.05;;;;;;;11.49;100.00;97362.34;3874553;75;44012;-27
2021/05/14 07:40:36;;;;;;;14.23;10.90;;;;;;;11.65;100.00;97366.63;3769191;76;42691;-27
2021/05/14 07:45:43;;;;;;;13.05;10.65;;;;;;;11.81;100.00;97369.06;3775723;78;43257;-27
2021/05/14 07:50:49;;;;;;;13.28;10.68;;;;;;;11.91;100.00;97365.18;3791967;76;44635;-27
2021/05/14 07:55:55;;;;;;;13.85;11.53;;;;;;;12.06;100.00;97371.86;3777022;78;43688;-27
2021/05/14 08:01:01;;;;;;;14.13;11.30;;;;;;;12.09;100.00;97377.72;3773602;76;43329;-27
2021/05/14 08:06:07;;;;;;;14.15;11.68;;;;;;;12.14;100.00;97383.34;3868489;76;44637;-27
2021/05/14 08:11:15;;;;;;;13.30;11.40;;;;;;;12.24;100.00;97383.00;3737865;76;77697;-27
2021/05/14 08:16:22;;;;;;;13.55;10.80;;;;;;;12.30;100.00;97383.55;3738974;76;44059;-27
2021/05/14 08:21:36;;;;;;;12.58;11.12;;;;;;;12.38;100.00;97383.91;3738460;78;44058;-26
2021/05/14 08:26:46;;;;;;;12.45;10.93;;;;;;;12.31;100.00;97383.88;3739669;78;43468;-27
2021/05/14 08:31:52;;;;;;;13.98;11.05;;;;;;;12.36;100.00;97391.91;3765921;76;43436;-28
2021/05/14 08:36:59;;;;;;;14.23;12.13;;;;;;;12.46;100.00;97385.13;3790228;76;43726;-28
2021/05/14 08:42:07;;;;;;;15.98;11.25;;;;;;;12.66;100.00;97390.30;3738393;79;43298;-27
2021/05/14 08:47:14;;;;;;;13.43;11.28;;;;;;;12.67;100.00;97390.11;3750679;76;43033;-27
2021/05/14 08:52:23;;;;;;;14.28;11.22;;;;;;;12.52;100.00;97386.70;3800237;78;43682;-27
2021/05/14 08:57:29;;;;;;;14.07;10.75;;;;;;;12.60;100.00;97387.37;3800186;78;44492;-27
2021/05/14 09:02:35;;;;;;;14.45;12.00;;;;;;;12.80;100.00;97389.33;3815447;76;43596;-27
2021/05/14 09:07:46;;;;;;;12.80;11.12;;;;;;;12.79;100.00;97395.77;3804559;76;43686;-27
2021/05/14 09:12:54;;;;;;;12.63;10.90;;;;;;;12.76;100.00;97398.86;3738690;79;43238;-29
2021/05/14 09:18:11;;;;;;;14.30;12.60;;;;;;;12.63;100.00;97399.14;3760986;76;43722;-27
2021/05/14 09:23:32;;;;;;;15.90;12.20;;;;;;;12.88;100.00;97395.91;3768279;78;44127;-27
2021/05/14 09:28:40;;;;;;;14.53;13.03;;;;;;;13.19;100.00;97401.34;3773406;78;43987;-27
2021/05/14 09:33:47;;;;;;;14.95;13.25;;;;;;;13.15;100.00;97401.42;3772467;76;43705;-27
2021/05/14 09:38:56;;;;;;;14.70;13.05;;;;;;;13.18;100.00;97404.23;3791282;76;44004;-27
2021/05/14 09:44:05;;;;;;;15.08;12.63;;;;;;;13.30;100.00;97393.67;3795548;77;43671;-26
2021/05/14 09:49:16;;;;;;;17.20;12.53;;;;;;;13.33;100.00;97398.15;3795525;76;77279;-27
2021/05/14 09:54:26;;;;;;;15.32;12.30;;;;;;;13.17;100.00;97398.00;3792693;77;43990;-27
2021/05/14 09:59:33;;;;;;;14.78;12.45;;;;;;;13.14;100.00;97397.05;3794034;77;44006;-27
2021/05/14 10:04:40;;;;;;;14.95;13.35;;;;;;;13.13;100.00;97395.37;3792603;76;44503;-27
2021/05/14 10:09:51;;;;;;;17.65;12.33;;;;;;;13.13;100.00;97396.73;3797625;76;42890;-26
2021/05/14 10:14:58;;;;;;;14.15;12.65;;;;;;;12.95;100.00;97391.38;3792796;77;44026;-27
2021/05/14 10:20:09;;;;;;;14.83;11.73;;;;;;;13.36;100.00;97391.48;3797515;76;43389;-27
2021/05/14 10:25:20;;;;;;;17.35;13.15;;;;;;;13.58;100.00;97385.43;3763230;79;44270;-26
2021/05/14 10:30:24;;;;;;;14.70;12.70;;;;;;;13.84;100.00;97383.25;3761299;77;44154;-27
2021/05/14 10:35:33;;;;;;;13.70;12.23;;;;;;;13.49;100.00;97392.91;3833610;76;44085;-28
2021/05/14 10:40:46;;;;;;;13.10;11.57;;;;;;;13.37;100.00;97400.77;3793184;76;43322;-27
2021/05/14 10:46:00;;;;;;;15.08;12.15;;;;;;;13.35;100.00;97384.41;3797024;76;43730;-27
2021/05/14 10:51:10;;;;;;;12.20;10.82;;;;;;;13.17;100.00;97399.35;3797784;76;43401;-27
2021/05/14 10:56:53;;;;;;;13.15;11.08;;;;;;;13.36;100.00;97392.84;3826202;77;43719;-27
2021/05/14 11:02:02;;;;;;;12.40;10.38;;;;;;;13.40;100.00;97395.49;3772751;76;43662;-27
2021/05/14 11:07:28;;;;;;;12.40;10.70;;;;;;;13.73;100.00;97398.77;3815480;77;44049;-27
2021/05/14 11:12:36;;;;;;;11.57;10.38;;;;;;;13.76;100.00;97392.94;3763012;79;44068;-27
2021/05/14 11:17:42;;;;;;;12.37;11.18;;;;;;;13.71;100.00;97394.07;3834527;76;44084;-28
2021/05/14 11:22:49;;;;;;;4.45;4.05;;;;;;;13.38;100.00;97416.47;3835947;76;43911;-27
2021/05/14 11:27:57;;;;;;;5.97;4.08;;;;;;;12.99;100.00;97411.26;3826603;76;43448;-27
2021/05/14 11:33:03;;;;;;;3.55;3.25;;;;;;;12.81;100.00;97416.67;3849598;76;43698;-27
2021/05/14 11:38:09;;;;;;;3.35;2.80;;;;;;;13.03;100.00;97415.20;3859274;76;43689;-27
2021/05/14 11:43:17;;;;;;;5.15;4.47;;;;;;;13.13;100.00;97412.13;3798257;78;43739;-27
2021/05/14 11:48:25;;;;;;;7.70;4.87;;;;;;;13.35;100.00;97410.10;3826388;76;43385;-27
2021/05/14 11:53:32;;;;;;;7.45;5.55;;;;;;;13.62;100.00;97407.49;3871198;75;43726;-27
2021/05/14 11:58:40;;;;;;;6.67;5.65;;;;;;;14.02;100.00;97411.06;3728335;78;43605;-27
2021/05/14 12:03:46;;;;;;;9.30;7.15;;;;;;;13.98;100.00;97407.63;3716442;78;43336;-27
2021/05/14 12:08:52;;;;;;;7.92;7.12;;;;;;;14.17;100.00;97410.84;3698938;78;43455;-27
2021/05/14 12:13:59;;;;;;;10.68;7.87;;;;;;;14.28;100.00;97409.39;3801173;77;44091;-27
2021/05/14 12:19:05;;;;;;;8.08;6.65;;;;;;;14.45;100.00;97403.00;3797494;76;44109;-28
2021/05/14 12:24:17;;;;;;;7.75;6.60;;;;;;;14.95;100.00;97406.53;3801467;77;43949;-29
2021/05/14 12:29:24;;;;;;;8.80;7.25;;;;;;;14.98;100.00;97418.85;3791414;76;44129;-28
2021/05/14 12:34:30;;;;;;;7.78;7.08;;;;;;;15.29;100.00;97408.29;3844280;75;43391;-27
2021/05/14 12:39:39;;;;;;;8.65;7.37;;;;;;;15.05;100.00;97420.19;3748335;78;43951;-27
2021/05/14 12:44:49;;;;;;;7.87;7.08;;;;;;;14.99;100.00;97419.17;3823098;77;44191;-27
2021/05/14 12:49:56;;;;;;;7.55;6.80;;;;;;;14.89;100.00;97430.96;3873082;76;43495;-27
2021/05/14 12:55:04;;;;;;;8.53;7.00;;;;;;;14.47;100.00;97445.64;3822281;76;44030;-27
2021/05/14 13:00:17;;;;;;;5.80;5.17;;;;;;;13.74;100.00;97447.80;3776154;76;43499;-28
2021/05/14 13:05:38;;;;;;;3.70;2.60;;;;;;;12.87;100.00;97453.73;3830381;76;43467;-27
2021/05/14 13:10:48;;;;;;;6.87;3.40;;;;;;;12.56;100.00;97458.22;3825638;77;43294;-26
2021/05/14 13:15:56;;;;;;;3.95;3.55;;;;;;;12.21;100.00;97469.80;3825953;76;44197;-25
2021/05/14 13:21:04;;;;;;;4.33;3.50;;;;;;;12.22;100.00;97471.47;3888963;76;43408;-26
2021/05/14 13:26:14;;;;;;;5.30;3.30;;;;;;;12.45;100.00;97458.23;3837272;76;43748;-26
2021/05/14 13:31:23;;;;;;;4.80;3.67;;;;;;;12.60;100.00;97463.53;3763362;77;43397;-26
2021/05/14 13:36:29;;;;;;;5.00;3.85;;;;;;;12.69;100.00;97461.02;3765133;77;43806;-26
2021/05/14 13:41:35;;;;;;;4.40;4.00;;;;;;;12.78;100.00;97461.66;3824855;77;44066;-26
2021/05/14 13:46:41;;;;;;;4.17;3.77;;;;;;;13.00;100.00;97454.80;3827111;76;44466;-26
2021/05/14 13:51:47;;;;;;;4.58;4.17;;;;;;;13.37;100.00;97460.78;3892838;76;44409;-26
2021/05/14 13:56:53;;;;;;;4.95;4.45;;;;;;;13.61;100.00;97451.33;3828995;76;43630;-26
2021/05/14 14:02:00;;;;;;;4.83;4.37;;;;;;;13.69;100.00;97454.37;3794019;76;43683;-26
2021/05/14 14:07:09;;;;;;;5.75;4.58;;;;;;;13.71;100.00;97455.82;3872724;76;44067;-22
2021/05/14 14:12:15;;;;;;;7.05;5.37;;;;;;;13.75;100.00;97454.88;3805181;76;43729;-22
2021/05/14 14:17:21;;;;;;;6.83;5.22;;;;;;;13.82;100.00;97446.78;3858054;76;43259;-22
2021/05/14 14:22:27;;;;;;;5.30;4.80;;;;;;;13.90;100.00;97451.16;3861491;76;43662;-23
2021/05/14 14:27:33;;;;;;;6.83;5.20;;;;;;;14.08;100.00;97451.91;3820049;76;44077;-22
2021/05/14 14:32:40;;;;;;;5.25;4.75;;;;;;;14.75;100.00;97443.73;3827026;76;44092;-22
2021/05/14 14:37:46;;;;;;;4.60;4.20;;;;;;;15.40;100.00;97442.34;3826523;76;44098;-27
2021/05/14 14:42:54;;;;;;;4.47;4.08;;;;;;;16.10;100.00;97445.27;3781184;77;43723;-21
2021/05/14 14:47:59;;;;;;;5.90;4.30;;;;;;;17.02;100.00;97435.12;3779137;76;44420;-23
2021/05/14 14:53:06;;;;;;;5.62;4.42;;;;;;;16.96;100.00;97441.45;3769530;78;44233;-23
2021/05/14 14:58:13;;;;;;;5.78;4.03;;;;;;;16.93;100.00;97442.71;3771821;78;43796;-22
2021/05/14 15:03:19;;;;;;;4.60;4.20;;;;;;;16.63;100.00;97445.33;3774354;76;43377;-22
2021/05/14 15:08:26;;;;;;;5.33;4.65;;;;;;;16.38;100.00;97443.47;3768510;78;43732;-23
2021/05/14 15:13:33;;;;;;;5.17;4.67;;;;;;;16.49;100.00;97437.84;3768323;77;43620;-21
2021/05/14 15:18:42;;;;;;;5.45;4.85;;;;;;;16.17;100.00;97444.17;3786589;76;44142;-23
2021/05/14 15:23:52;;;;;;;4.97;4.42;;;;;;;15.90;100.00;97443.55;3629208;81;43927;-23
2021/05/14 15:28:59;;;;;;;5.10;4.60;;;;;;;16.12;100.00;97441.27;3773190;78;44043;-23
2021/05/14 15:34:06;;;;;;;4.95;4.50;;;;;;;16.35;100.00;97432.22;3634937;80;44059;-22
2021/05/14 15:39:13;;;;;;;5.37;4.87;;;;;;;16.42;100.00;97429.74;3777910;77;44016;-23
2021/05/14 15:44:21;;;;;;;6.05;4.22;;;;;;;16.40;100.00;97429.12;3797601;78;44405;-22
2021/05/14 15:49:28;;;;;;;4.55;4.15;;;;;;;16.58;100.00;97431.59;3798005;76;44152;-23
2021/05/14 15:54:35;;;;;;;6.00;4.30;;;;;;;17.03;100.00;97424.54;3800929;78;44082;-23
2021/05/14 15:59:43;;;;;;;4.17;3.77;;;;;;;16.73;100.00;97432.04;3801696;77;44071;-22
2021/05/14 16:04:50;;;;;;;5.80;4.92;;;;;;;16.38;100.00;97431.78;3829252;76;44425;-22
2021/05/14 16:09:57;;;;;;;5.62;4.67;;;;;;;16.06;100.00;97438.61;3800205;77;43246;-22
2021/05/14 16:15:08;;;;;;;4.75;4.28;;;;;;;16.11;100.00;97430.64;3801690;77;43611;-22
2021/05/14 16:20:21;;;;;;;7.45;6.70;;;;;;;16.86;100.00;97428.36;3799825;76;44018;-23
2021/05/14 16:25:24;;;;;;;8.00;5.08;;;;;;;17.23;100.00;97426.17;3797975;78;44040;-23
2021/05/14 16:30:31;;;;;;;7.05;5.87;;;;;;;17.65;100.00;97424.05;3797424;77;43951;-23
2021/05/14 16:35:39;;;;;;;5.53;4.62;;;;;;;18.26;100.00;97424.80;3801753;76;43377;-23
2021/05/14 16:40:50;;;;;;;4.58;4.15;;;;;;;18.24;96.33;97421.47;3769303;76;26369;-23
2021/05/14 16:45:59;;;;;;;5.22;4.65;;;;;;;18.39;100.00;97425.12;3794115;76;43766;-23
2021/05/14 16:51:08;;;;;;;4.78;4.28;;;;;;;17.66;100.00;97423.80;3797431;76;43740;-23
2021/05/14 16:56:15;;;;;;;4.97;4.45;;;;;;;17.30;100.00;97425.55;3798072;77;43410;-23
2021/05/14 17:01:24;;;;;;;7.10;6.40;;;;;;;17.10;100.00;97429.91;3794586;76;44025;-24
2021/05/14 17:06:39;;;;;;;9.95;8.33;;;;;;;16.63;100.00;97436.66;3800200;77;43372;-24
2021/05/14 17:11:47;;;;;;;5.40;4.90;;;;;;;16.44;100.00;97433.59;3797394;76;43392;-23
2021/05/14 17:16:54;;;;;;;6.60;5.50;;;;;;;16.13;100.00;97448.91;3790169;76;43974;-23
2021/05/14 17:22:04;;;;;;;5.08;4.60;;;;;;;15.96;100.00;97442.66;3798475;76;44380;-22
2021/05/14 17:27:12;;;;;;;5.08;4.58;;;;;;;16.02;100.00;97435.00;3793470;77;44034;-23
2021/05/14 17:32:19;;;;;;;5.47;4.97;;;;;;;16.15;100.00;97438.13;3798167;76;43450;-22
2021/05/14 17:37:25;;;;;;;7.92;5.00;;;;;;;16.20;100.00;97440.71;3798044;78;44031;-22
2021/05/14 17:42:32;;;;;;;5.50;5.00;;;;;;;16.53;100.00;97443.11;3797555;76;43066;-23
2021/05/14 17:47:38;;;;;;;5.65;5.15;;;;;;;16.39;100.00;97440.23;3803848;76;43677;-22
2021/05/14 17:52:44;;;;;;;5.50;4.90;;;;;;;16.61;100.00;97449.64;3796918;76;44019;-23
2021/05/14 17:57:50;;;;;;;5.65;4.87;;;;;;;17.19;100.00;97448.94;3793252;77;43695;-24
2021/05/14 18:02:56;;;;;;;6.05;5.15;;;;;;;17.34;100.00;97455.34;3793602;76;43987;-23
2021/05/14 18:08:02;;;;;;;6.03;4.92;;;;;;;17.32;100.00;97449.84;3791631;78;44027;-24
2021/05/14 18:13:10;;;;;;;5.85;5.22;;;;;;;17.15;100.00;97445.00;3797151;76;43934;-24
2021/05/14 18:18:16;;;;;;;6.78;6.08;;;;;;;17.19;100.00;97434.48;3804910;76;44722;-25
2021/05/14 18:23:22;;;;;;;10.78;7.40;;;;;;;15.97;100.00;97451.65;3798801;76;43639;-23
2021/05/14 18:28:29;;;;;;;8.75;7.85;;;;;;;15.32;100.00;97451.25;3792595;78;44071;-23
2021/05/14 18:33:35;;;;;;;9.30;8.33;;;;;;;14.75;100.00;97450.00;3804465;76;43995;-23
2021/05/14 18:38:41;;;;;;;10.90;8.93;;;;;;;14.44;100.00;97450.11;3798065;78;44050;-23
2021/05/14 18:43:47;;;;;;;9.43;8.40;;;;;;;14.17;100.00;97458.78;3796322;77;43338;-23
2021/05/14 18:48:53;;;;;;;9.45;8.55;;;;;;;13.86;100.00;97460.23;3740380;78;43395;-25
2021/05/14 18:53:58;;;;;;;10.80;9.20;;;;;;;13.62;100.00;97454.35;3641485;80;44779;-25
2021/05/14 18:59:05;;;;;;;9.80;8.85;;;;;;;13.34;100.00;97459.86;3792841;77;44015;-25
2021/05/14 19:04:12;;;;;;;10.08;8.95;;;;;;;13.19;100.00;97461.34;3742582;78;43448;-24
2021/05/14 19:09:18;;;;;;;10.85;9.35;;;;;;;13.07;100.00;97467.86;3644117;81;43684;-24
2021/05/14 19:14:26;;;;;;;12.60;10.28;;;;;;;12.92;100.00;97475.58;3795265;77;43408;-24
2021/05/14 19:19:34;;;;;;;11.40;10.20;;;;;;;12.83;100.00;97474.08;3796457;77;43372;-25
2021/05/14 19:24:47;;;;;;;11.68;10.48;;;;;;;12.55;100.00;97470.06;3792071;78;44083;-27
2021/05/14 19:35:22;;;;;;;10.53;9.30;;;;;;;12.15;100.00;97480.05;3738939;78;43718;-24
2021/05/14 19:46:03;;;;;;;9.87;8.67;;;;;;;11.97;100.00;97489.39;3741182;77;43729;-26
2021/05/14 19:51:06;;;;;;;12.80;8.90;;;;;;;11.82;100.00;97486.77;3735971;78;43245;-27
2021/05/14 19:56:12;;;;;;;12.90;8.58;;;;;;;11.74;100.00;97495.49;3645427;81;43676;-26
2021/05/14 20:01:18;;;;;;;9.67;8.33;;;;;;;11.55;100.00;97495.09;3791100;77;43392;-24
2021/05/14 20:06:25;;;;;;;12.53;9.00;;;;;;;11.44;100.00;97499.11;3794183;77;43986;-24
2021/05/14 20:11:32;;;;;;;12.70;9.48;;;;;;;11.40;100.00;97508.10;3736934;78;43355;-25
2021/05/14 20:16:37;;;;;;;11.90;9.33;;;;;;;11.36;100.00;97508.14;3644659;80;43431;-24
2021/05/14 20:21:43;;;;;;;12.85;9.48;;;;;;;11.22;100.00;97514.42;3790864;77;43704;-24
2021/05/14 20:26:50;;;;;;;10.60;9.50;;;;;;;11.14;100.00;97508.61;3741490;78;43130;-24
2021/05/14 20:32:05;;;;;;;13.00;10.25;;;;;;;11.10;100.00;97517.59;3639767;80;43678;-24
2021/05/14 20:37:13;;;;;;;12.30;10.38;;;;;;;11.11;100.00;97523.80;3792807;78;44003;-24
2021/05/14 20:42:19;;;;;;;12.78;11.40;;;;;;;11.17;100.00;97527.61;3792779;77;43988;-24
2021/05/14 20:47:25;;;;;;;15.13;12.47;;;;;;;11.10;100.00;97528.38;3791747;77;44097;-25
2021/05/14 20:52:31;;;;;;;16.05;12.75;;;;;;;11.05;100.00;97524.56;3792554;78;44083;-25
2021/05/14 20:57:42;;;;;;;15.70;12.43;;;;;;;10.95;100.00;97527.53;3787297;77;44054;-25
2021/05/14 21:02:48;;;;;;;17.80;12.87;;;;;;;10.92;100.00;97530.59;3792324;77;77421;-24
2021/05/14 21:07:55;;;;;;;16.73;13.22;;;;;;;10.78;100.00;97526.88;3791119;77;44048;-24
2021/05/14 21:13:01;;;;;;;18.87;14.47;;;;;;;10.73;100.00;97530.13;3793898;77;44175;-24
2021/05/14 21:18:07;;;;;;;21.07;15.10;;;;;;;10.71;100.00;97528.12;3738553;78;43726;-24
2021/05/14 21:23:13;;;;;;;17.67;14.10;;;;;;;10.69;100.00;97531.50;3642642;80;43274;-24
2021/05/14 21:28:19;;;;;;;16.73;12.80;;;;;;;10.67;100.00;97532.19;3705692;78;44069;-25
2021/05/14 21:33:26;;;;;;;15.33;12.17;;;;;;;10.63;100.00;97532.26;3708512;78;44150;-24
2021/05/14 21:38:30;;;;;;;15.15;12.60;;;;;;;10.60;100.00;97519.97;3793133;77;43659;-25
2021/05/14 21:43:35;;;;;;;15.03;11.95;;;;;;;10.63;100.00;97525.00;3755159;78;43721;-24
2021/05/14 21:48:40;;;;;;;16.80;12.57;;;;;;;10.59;100.00;97525.03;3795540;76;43980;-24
2021/05/14 21:53:45;;;;;;;15.83;12.73;;;;;;;10.50;100.00;97518.58;3796430;78;77514;-24
2021/05/14 21:58:50;;;;;;;15.53;12.20;;;;;;;10.40;100.00;97517.48;3792244;76;44038;-24
2021/05/14 22:03:54;;;;;;;14.40;12.10;;;;;;;10.36;100.00;97522.86;3800476;76;43717;-25
2021/05/14 22:08:59;;;;;;;17.03;12.87;;;;;;;10.37;100.00;97520.50;3791782;76;43389;-25
2021/05/14 22:14:06;;;;;;;14.65;11.90;;;;;;;10.30;100.00;97516.34;3796618;78;77389;-24
2021/05/14 22:19:12;;;;;;;13.35;11.57;;;;;;;10.33;100.00;97518.69;3795122;76;77384;-24
2021/05/14 22:24:19;;;;;;;13.55;10.98;;;;;;;10.32;100.00;97520.56;3797965;78;44481;-24
2021/05/14 22:29:24;;;;;;;13.23;10.73;;;;;;;10.26;100.00;97521.79;3796085;78;77452;-24
2021/05/14 22:34:30;;;;;;;12.13;10.48;;;;;;;10.30;100.00;97520.39;3797420;76;43717;-24
2021/05/14 22:39:35;;;;;;;13.33;10.60;;;;;;;10.24;100.00;97519.78;3793425;78;43717;-24
2021/05/14 22:44:40;;;;;;;14.10;10.85;;;;;;;10.21;100.00;97530.41;3806523;76;44394;-24
2021/05/14 22:49:45;;;;;;;14.35;11.08;;;;;;;10.15;100.00;97534.66;3821440;76;43006;-24
2021/05/14 22:54:50;;;;;;;16.20;12.63;;;;;;;10.11;100.00;97526.61;3822715;77;43717;-24
2021/05/14 22:59:55;;;;;;;60.65;53.80;;;;;;;10.01;100.00;97520.64;3820949;77;43708;-24
2021/05/14 23:05:00;;;;;;;36.98;31.10;;;;;;;9.91;100.00;97529.47;3822193;76;43058;-24
2021/05/14 23:10:07;;;;;;;15.77;13.27;;;;;;;9.82;100.00;97525.98;3820094;77;44495;-24
2021/05/14 23:15:13;;;;;;;14.73;12.20;;;;;;;9.77;100.00;97533.25;3822465;76;44071;-24
2021/05/14 23:20:18;;;;;;;14.60;11.63;;;;;;;9.61;100.00;97535.53;3821266;76;43446;-24
2021/05/14 23:25:23;;;;;;;14.23;11.40;;;;;;;9.53;100.00;97536.41;3821480;77;77797;-26
2021/05/14 23:30:28;;;;;;;14.50;10.47;;;;;;;9.48;100.00;97537.44;3819221;77;43301;-24
2021/05/14 23:35:33;;;;;;;15.35;11.35;;;;;;;9.46;100.00;97535.95;3822512;76;77388;-25
2021/05/14 23:40:38;;;;;;;11.73;10.20;;;;;;;9.36;100.00;97538.84;3822432;76;43621;-24